Time;durP1;ratioP1;P1;durP2;ratioP2;P2;SDS_P1;SDS_P2;PMS_P1;PMS_P2;Temp;Humidity;BMP_temperature;BMP_pressure;BME280_temperature;BME280_humidity;BME280_pressure;Samples;Min_cycle;Max_cycle;Signal;HPM_P1;HPM_P2
2021/06/10 00:00:17;;;;;;;9.23;8.40;;;19.10;1.00;;;;;;4958219;28;20941;-73
2021/06/10 00:02:43;;;;;;;10.00;8.80;;;19.00;1.00;;;;;;4956476;28;20444;-73
2021/06/10 00:05:11;;;;;;;10.17;9.03;;;18.90;1.00;;;;;;4954281;28;20496;-73
2021/06/10 00:07:37;;;;;;;10.40;9.30;;;18.90;1.00;;;;;;4957496;28;20448;-73
2021/06/10 00:10:09;;;;;;;9.47;8.43;;;18.90;1.00;;;;;;4957500;28;20460;-72
2021/06/10 00:12:35;;;;;;;9.10;8.10;;;18.90;1.00;;;;;;4958118;28;21422;-73
2021/06/10 00:15:00;;;;;;;9.00;8.10;;;18.90;1.00;;;;;;4957633;28;20533;-72
2021/06/10 00:17:26;;;;;;;8.80;7.83;;;19.00;1.00;;;;;;4986534;28;20496;-73
2021/06/10 00:19:52;;;;;;;8.07;7.37;;;19.00;1.00;;;;;;4955342;28;20375;-73
2021/06/10 00:22:19;;;;;;;8.50;7.30;;;19.00;1.00;;;;;;4950520;28;20193;-73
2021/06/10 00:24:44;;;;;;;7.43;6.73;;;19.10;1.00;;;;;;4951865;28;20585;-73
2021/06/10 00:27:10;;;;;;;7.80;7.00;;;19.20;1.00;;;;;;4951762;28;20432;-72
2021/06/10 00:29:36;;;;;;;8.63;7.27;;;19.10;1.00;;;;;;4950181;28;20201;-73
2021/06/10 00:32:02;;;;;;;8.57;7.77;;;19.00;1.00;;;;;;4954137;28;20790;-73
2021/06/10 00:34:27;;;;;;;7.90;7.13;;;18.90;1.00;;;;;;4951043;28;20253;-73
2021/06/10 00:36:53;;;;;;;14.03;7.33;;;18.80;1.00;;;;;;4952510;28;20192;-73
2021/06/10 00:39:19;;;;;;;9.80;8.23;;;18.80;1.00;;;;;;4949551;28;20189;-73
2021/06/10 00:41:44;;;;;;;9.20;7.63;;;18.80;1.00;;;;;;4953416;28;20218;-73
2021/06/10 00:44:10;;;;;;;8.13;7.40;;;18.70;1.00;;;;;;4945400;28;20575;-73
2021/06/10 00:46:36;;;;;;;10.03;9.03;;;18.60;1.00;;;;;;4952193;28;20221;-73
2021/06/10 00:49:03;;;;;;;14.23;8.93;;;18.50;1.00;;;;;;4954678;28;20281;-72
2021/06/10 00:51:29;;;;;;;12.73;9.30;;;18.50;1.00;;;;;;4952361;28;20470;-73
2021/06/10 00:53:56;;;;;;;10.17;9.03;;;18.50;1.00;;;;;;4949576;28;20460;-73
2021/06/10 00:56:22;;;;;;;11.50;9.77;;;18.40;1.00;;;;;;4949812;28;20192;-73
2021/06/10 00:58:48;;;;;;;12.07;10.57;;;18.40;1.00;;;;;;4952214;28;20733;-73
2021/06/10 01:01:13;;;;;;;13.60;10.30;;;18.30;1.00;;;;;;4952036;28;21152;-73
2021/06/10 01:03:39;;;;;;;12.20;11.00;;;18.30;1.00;;;;;;4949869;28;20185;-72
2021/06/10 01:06:32;;;;;;;14.23;11.47;;;18.10;1.00;;;;;;4954020;28;20221;-73
2021/06/10 01:08:57;;;;;;;14.30;12.87;;;18.10;1.00;;;;;;4952735;28;20216;-73
2021/06/10 01:12:03;;;;;;;16.80;15.10;;;18.00;1.00;;;;;;4955486;28;20459;-73
2021/06/10 01:14:49;;;;;;;18.63;16.57;;;18.00;1.00;;;;;;4986907;28;20244;-73
2021/06/10 01:17:16;;;;;;;23.17;18.70;;;17.90;1.00;;;;;;4955118;28;20464;-73
2021/06/10 01:19:41;;;;;;;19.40;17.50;;;17.90;1.00;;;;;;4952449;28;21372;-73
2021/06/10 01:22:14;;;;;;;25.03;20.57;;;17.90;1.00;;;;;;4947762;28;21242;-73
2021/06/10 01:24:59;;;;;;;23.93;18.93;;;17.80;1.00;;;;;;4948499;28;20311;-73
2021/06/10 01:27:30;;;;;;;19.37;17.37;;;17.80;1.00;;;;;;4948977;28;20575;-72
2021/06/10 01:30:02;;;;;;;19.53;16.60;;;17.80;1.00;;;;;;4951749;28;20457;-73
2021/06/10 01:32:29;;;;;;;17.30;15.60;;;17.70;1.00;;;;;;4947036;28;20521;-73
2021/06/10 01:34:55;;;;;;;16.57;14.90;;;17.70;1.00;;;;;;4949094;28;20605;-73
2021/06/10 01:37:22;;;;;;;17.97;16.17;;;17.80;1.00;;;;;;4951113;28;20452;-73
2021/06/10 01:39:50;;;;;;;15.87;12.97;;;17.70;1.00;;;;;;4950921;28;21744;-73
2021/06/10 01:42:16;;;;;;;18.70;16.60;;;17.70;1.00;;;;;;4950574;28;20469;-73
2021/06/10 01:44:42;;;;;;;15.70;14.10;;;17.80;1.00;;;;;;4944949;28;20460;-72
2021/06/10 01:47:09;;;;;;;16.50;14.80;;;17.80;1.00;;;;;;4950274;28;20439;-73
2021/06/10 01:49:36;;;;;;;18.60;14.57;;;17.80;1.00;;;;;;4952072;28;20848;-73
2021/06/10 01:52:06;;;;;;;18.07;16.30;;;17.70;1.00;;;;;;4948874;28;20452;-73
2021/06/10 01:54:33;;;;;;;20.23;16.30;;;17.70;1.00;;;;;;4955339;28;20463;-73
2021/06/10 01:57:01;;;;;;;25.20;18.90;;;17.70;1.00;;;;;;4956854;28;20448;-73
2021/06/10 01:59:27;;;;;;;21.23;17.60;;;17.70;1.00;;;;;;4955969;28;20448;-73
2021/06/10 02:01:53;;;;;;;19.30;17.40;;;17.80;1.00;;;;;;4956479;28;20522;-73
2021/06/10 02:04:22;;;;;;;19.20;17.10;;;17.90;1.00;;;;;;4954900;28;20992;-73
2021/06/10 02:06:48;;;;;;;18.93;17.03;;;17.80;1.00;;;;;;4986440;28;20464;-73
2021/06/10 02:09:14;;;;;;;18.47;16.50;;;17.70;1.00;;;;;;4953405;28;20588;-72
2021/06/10 02:11:41;;;;;;;22.27;17.80;;;17.70;1.00;;;;;;4957238;28;20449;-73
2021/06/10 02:14:08;;;;;;;25.40;22.67;;;17.80;1.00;;;;;;4954087;28;20796;-73
2021/06/10 02:16:39;;;;;;;23.37;20.87;;;17.80;1.00;;;;;;4954557;28;20577;-73
2021/06/10 02:19:04;;;;;;;23.80;21.27;;;17.70;1.00;;;;;;4957337;28;20513;-73
2021/06/10 02:21:31;;;;;;;26.20;21.87;;;17.60;1.00;;;;;;4954420;28;20484;-73
2021/06/10 02:23:57;;;;;;;26.70;23.67;;;17.50;1.00;;;;;;4952069;28;20425;-73
2021/06/10 02:26:22;;;;;;;24.57;21.93;;;17.50;1.00;;;;;;4953952;28;21232;-72
2021/06/10 02:28:48;;;;;;;26.90;22.30;;;17.50;1.00;;;;;;4951619;28;20236;-73
2021/06/10 02:31:14;;;;;;;22.97;20.63;;;17.50;1.00;;;;;;4953023;28;20195;-72
2021/06/10 02:33:42;;;;;;;23.47;21.17;;;17.30;1.00;;;;;;4949690;28;20186;-73
2021/06/10 02:36:10;;;;;;;25.17;22.40;;;17.20;1.00;;;;;;4953728;28;21944;-72
2021/06/10 02:38:39;;;;;;;22.40;19.33;;;17.00;1.00;;;;;;4952609;28;21028;-73
2021/06/10 02:41:06;;;;;;;24.00;21.43;;;16.90;1.00;;;;;;4951044;28;20531;-73
2021/06/10 02:43:32;;;;;;;25.20;22.33;;;16.70;1.00;;;;;;4951179;28;20449;-73
2021/06/10 02:46:00;;;;;;;25.17;22.37;;;16.60;1.00;;;;;;4981254;28;20555;-73
2021/06/10 02:48:28;;;;;;;27.70;23.33;;;16.60;1.00;;;;;;4954476;28;20574;-73
2021/06/10 02:50:56;;;;;;;23.07;20.70;;;16.80;1.00;;;;;;4952033;28;20464;-73
2021/06/10 02:53:23;;;;;;;21.47;19.13;;;16.90;1.00;;;;;;4951870;28;20467;-72
2021/06/10 02:55:51;;;;;;;21.63;19.27;;;16.90;1.00;;;;;;4952762;28;20464;-72
2021/06/10 02:58:19;;;;;;;22.33;20.03;;;16.90;1.00;;;;;;4955772;28;20459;-72
2021/06/10 03:00:45;;;;;;;20.60;18.40;;;17.10;1.00;;;;;;4952274;28;20494;-73
2021/06/10 03:03:13;;;;;;;27.80;22.30;;;17.10;1.00;;;;;;4956310;28;20439;-73
2021/06/10 03:05:41;;;;;;;23.50;21.00;;;17.10;1.00;;;;;;4953083;28;20455;-72
2021/06/10 03:08:12;;;;;;;27.53;24.53;;;17.20;1.00;;;;;;4952539;28;20448;-73
2021/06/10 03:10:38;;;;;;;31.40;24.87;;;17.20;1.00;;;;;;4950901;28;20456;-73
2021/06/10 03:13:04;;;;;;;25.93;22.97;;;17.20;1.00;;;;;;4952346;28;20940;-73
2021/06/10 03:15:32;;;;;;;24.80;22.20;;;17.20;1.00;;;;;;4955673;28;20551;-73
2021/06/10 03:17:58;;;;;;;27.70;22.60;;;17.20;1.00;;;;;;4960245;28;20459;-73
2021/06/10 03:20:25;;;;;;;25.47;21.90;;;17.10;1.00;;;;;;4954300;28;20487;-73
2021/06/10 03:22:52;;;;;;;28.60;22.83;;;17.20;1.00;;;;;;4953766;28;20529;-73
2021/06/10 03:25:19;;;;;;;22.93;20.53;;;17.20;1.00;;;;;;4954270;28;21397;-73
2021/06/10 03:27:45;;;;;;;24.60;21.90;;;17.00;1.00;;;;;;4955132;28;20482;-73
2021/06/10 03:30:12;;;;;;;25.67;22.37;;;17.10;1.00;;;;;;4955737;28;20448;-73
2021/06/10 03:32:38;;;;;;;26.50;22.10;;;17.00;1.00;;;;;;4963365;28;20482;-74
2021/06/10 03:35:04;;;;;;;26.10;23.27;;;16.90;1.00;;;;;;4956602;28;20487;-73
2021/06/10 03:37:31;;;;;;;24.37;21.87;;;16.90;1.00;;;;;;4956590;28;20461;-73
2021/06/10 03:39:59;;;;;;;23.97;20.90;;;16.90;1.00;;;;;;4955540;28;20507;-73
2021/06/10 03:42:25;;;;;;;20.60;18.50;;;17.20;1.00;;;;;;4958030;28;20488;-73
2021/06/10 03:44:51;;;;;;;22.73;20.33;;;17.80;1.00;;;;;;4953266;28;20551;-73
2021/06/10 03:47:18;;;;;;;31.50;19.40;;;17.90;1.00;;;;;;4959761;28;20449;-73
2021/06/10 03:49:44;;;;;;;28.00;23.90;;;18.20;1.00;;;;;;4956824;28;20455;-73
2021/06/10 03:52:10;;;;;;;27.53;24.17;;;17.80;1.00;;;;;;4955076;28;20509;-72
2021/06/10 03:54:36;;;;;;;30.03;26.93;;;17.60;1.00;;;;;;4954687;28;20265;-72
2021/06/10 03:57:02;;;;;;;32.70;26.20;;;17.30;1.00;;;;;;4958059;28;20451;-72
2021/06/10 03:59:27;;;;;;;32.10;28.70;;;17.10;1.00;;;;;;4956846;28;20548;-72
2021/06/10 04:01:53;;;;;;;36.27;29.50;;;16.90;1.00;;;;;;4958586;28;20452;-72
2021/06/10 04:04:19;;;;;;;38.97;28.80;;;16.90;1.00;;;;;;4955796;28;20251;-72
2021/06/10 04:06:46;;;;;;;30.13;26.97;;;16.90;1.00;;;;;;4955913;28;20205;-72
2021/06/10 04:09:12;;;;;;;33.50;29.67;;;16.90;1.00;;;;;;4952078;28;20464;-72
2021/06/10 04:11:38;;;;;;;30.53;27.23;;;16.90;1.00;;;;;;4954516;28;20457;-72
2021/06/10 04:14:04;;;;;;;31.67;27.33;;;16.90;1.00;;;;;;4953314;28;20201;-72
2021/06/10 04:16:30;;;;;;;28.20;25.17;;;16.80;1.00;;;;;;4961103;28;20448;-73
2021/06/10 04:18:56;;;;;;;29.10;25.53;;;16.80;1.00;;;;;;4960697;28;20478;-72
2021/06/10 04:21:22;;;;;;;28.40;25.27;;;16.80;1.00;;;;;;4957891;28;20229;-72
2021/06/10 04:23:48;;;;;;;34.07;26.20;;;17.00;1.00;;;;;;4952180;28;20189;-72
2021/06/10 04:26:16;;;;;;;27.60;24.33;;;17.10;1.00;;;;;;4954189;28;20457;-72
2021/06/10 04:28:44;;;;;;;27.10;23.67;;;17.10;1.00;;;;;;4950310;28;20189;-72
2021/06/10 04:31:11;;;;;;;29.37;25.50;;;17.10;1.00;;;;;;4953352;28;20513;-72
2021/06/10 04:33:37;;;;;;;27.87;24.60;;;17.10;1.00;;;;;;4953093;28;20790;-72
2021/06/10 04:36:03;;;;;;;26.17;23.47;;;17.10;1.00;;;;;;4952325;28;20538;-72
2021/06/10 04:38:29;;;;;;;30.40;25.70;;;17.10;1.00;;;;;;4951143;28;20241;-73
2021/06/10 04:40:55;;;;;;;29.10;25.60;;;17.00;1.00;;;;;;4949582;28;20479;-72
2021/06/10 04:43:20;;;;;;;27.20;24.40;;;17.00;1.00;;;;;;4950403;28;20448;-72
2021/06/10 04:45:46;;;;;;;28.47;25.47;;;17.10;1.00;;;;;;4951513;28;21182;-72
2021/06/10 04:48:12;;;;;;;33.03;28.60;;;17.10;1.00;;;;;;4954612;28;20199;-72
2021/06/10 04:50:37;;;;;;;36.43;30.40;;;17.00;1.00;;;;;;4956900;28;20278;-72
2021/06/10 04:53:04;;;;;;;34.77;31.07;;;16.90;1.00;;;;;;4961796;28;20964;-72
2021/06/10 04:55:30;;;;;;;37.13;31.50;;;17.00;1.00;;;;;;4955742;28;20228;-72
2021/06/10 04:57:56;;;;;;;33.27;29.00;;;17.00;1.00;;;;;;4955015;28;20452;-72
2021/06/10 05:00:22;;;;;;;35.57;28.53;;;17.00;1.00;;;;;;4956607;28;23393;-72
2021/06/10 05:02:48;;;;;;;32.73;29.40;;;17.10;1.00;;;;;;4956400;28;20346;-72
2021/06/10 05:05:14;;;;;;;31.60;28.20;;;17.10;1.00;;;;;;4954688;28;20471;-72
2021/06/10 05:07:40;;;;;;;37.93;31.77;;;17.20;1.00;;;;;;4954641;28;20193;-72
2021/06/10 05:10:06;;;;;;;23.53;21.13;;;17.20;1.00;;;;;;4952737;28;20695;-72
2021/06/10 05:12:32;;;;;;;21.30;19.07;;;17.40;1.00;;;;;;4950047;28;20218;-72
2021/06/10 05:14:57;;;;;;;27.97;25.03;;;17.50;1.00;;;;;;4952181;28;20449;-72
2021/06/10 05:17:24;;;;;;;28.40;25.30;;;17.50;1.00;;;;;;4957556;28;20193;-72
2021/06/10 05:19:49;;;;;;;33.50;26.50;;;17.50;1.00;;;;;;4953146;28;20249;-73
2021/06/10 05:22:15;;;;;;;18.90;16.90;;;17.70;1.00;;;;;;4962085;28;20545;-72
2021/06/10 05:24:40;;;;;;;19.00;17.20;;;17.90;1.00;;;;;;4960535;28;20185;-72
2021/06/10 05:27:09;;;;;;;17.77;16.03;;;17.90;1.00;;;;;;4957929;28;20216;-72
2021/06/10 05:29:36;;;;;;;18.20;16.37;;;18.00;1.00;;;;;;4956601;28;20227;-72
2021/06/10 05:32:01;;;;;;;20.53;17.07;;;18.00;1.00;;;;;;4964782;28;20448;-72
2021/06/10 05:34:27;;;;;;;17.80;15.90;;;18.10;1.00;;;;;;4963397;28;20448;-72
2021/06/10 05:36:52;;;;;;;21.93;18.93;;;18.10;1.00;;;;;;4962379;28;20209;-72
2021/06/10 05:39:18;;;;;;;31.07;27.80;;;18.10;1.00;;;;;;4964789;28;20215;-72
2021/06/10 05:41:44;;;;;;;32.00;28.80;;;18.00;1.00;;;;;;4962591;28;20213;-72
2021/06/10 05:44:10;;;;;;;32.07;28.87;;;17.90;1.00;;;;;;4965034;28;20190;-72
2021/06/10 05:46:36;;;;;;;30.73;26.77;;;17.90;1.00;;;;;;4961716;28;20969;-72
2021/06/10 05:49:01;;;;;;;29.43;24.27;;;17.90;1.00;;;;;;4961873;28;20189;-72
2021/06/10 05:51:27;;;;;;;28.87;25.87;;;17.90;1.00;;;;;;4962767;28;20205;-72
2021/06/10 05:53:53;;;;;;;30.30;27.07;;;17.90;1.00;;;;;;4964738;28;20248;-72
2021/06/10 05:56:18;;;;;;;26.67;23.83;;;18.00;1.00;;;;;;4967091;28;20190;-72
2021/06/10 05:58:44;;;;;;;26.73;23.93;;;18.20;1.00;;;;;;4960855;28;20198;-72
2021/06/10 06:01:10;;;;;;;29.57;26.10;;;18.30;1.00;;;;;;4966271;28;20194;-73
2021/06/10 06:03:35;;;;;;;25.47;22.90;;;18.40;1.00;;;;;;4962185;28;20185;-72
2021/06/10 06:06:01;;;;;;;30.20;27.13;;;18.60;1.00;;;;;;4962688;28;20201;-72
2021/06/10 06:08:27;;;;;;;27.60;24.43;;;18.70;1.00;;;;;;4964892;28;20197;-72
2021/06/10 06:10:55;;;;;;;24.40;21.40;;;18.80;1.00;;;;;;4963147;28;20224;-72
2021/06/10 06:13:24;;;;;;;23.50;19.40;;;18.90;1.00;;;;;;4969001;28;20552;-72
2021/06/10 06:15:57;;;;;;;20.50;18.40;;;19.00;1.00;;;;;;4964802;28;20468;-72
2021/06/10 06:18:22;;;;;;;19.20;17.30;;;19.10;1.00;;;;;;4960144;28;20440;-73
2021/06/10 06:20:48;;;;;;;19.93;17.93;;;19.20;1.00;;;;;;4956017;28;20481;-72
2021/06/10 06:23:14;;;;;;;22.50;18.97;;;19.30;1.00;;;;;;4955944;28;20196;-72
2021/06/10 06:25:40;;;;;;;19.90;17.80;;;19.40;1.00;;;;;;4955761;28;21789;-72
2021/06/10 06:28:06;;;;;;;21.60;19.40;;;19.50;1.00;;;;;;4958241;28;20445;-73
2021/06/10 06:30:31;;;;;;;21.80;18.53;;;19.70;1.00;;;;;;4957449;28;20198;-73
2021/06/10 06:32:57;;;;;;;20.97;18.87;;;19.70;1.00;;;;;;4960202;28;20691;-72
2021/06/10 06:35:23;;;;;;;18.87;16.60;;;19.80;1.00;;;;;;4957380;28;20185;-72
2021/06/10 06:37:50;;;;;;;16.33;14.67;;;19.90;1.00;;;;;;4954156;28;20205;-73
2021/06/10 06:40:18;;;;;;;27.67;17.33;;;20.10;1.00;;;;;;4950340;28;21110;-73
2021/06/10 06:42:43;;;;;;;19.60;15.13;;;20.10;1.00;;;;;;4942593;28;20479;-73
2021/06/10 06:45:09;;;;;;;17.50;15.00;;;20.30;1.00;;;;;;4951453;28;20552;-73
2021/06/10 06:47:35;;;;;;;15.20;13.67;;;20.40;1.00;;;;;;4946485;28;20193;-73
2021/06/10 06:50:01;;;;;;;13.87;11.87;;;20.40;1.00;;;;;;4953508;28;20281;-73
2021/06/10 06:52:27;;;;;;;13.37;11.03;;;20.50;1.00;;;;;;4961481;28;20235;-73
2021/06/10 06:54:52;;;;;;;17.50;10.60;;;20.60;1.00;;;;;;4954846;28;20452;-73
2021/06/10 06:57:18;;;;;;;14.27;10.13;;;20.70;1.00;;;;;;4953784;28;20275;-73
2021/06/10 06:59:44;;;;;;;11.20;10.10;;;20.80;1.00;;;;;;4954894;28;20285;-73
2021/06/10 07:02:10;;;;;;;12.47;9.50;;;20.90;1.00;;;;;;4958073;28;20215;-73
2021/06/10 07:04:36;;;;;;;12.27;10.27;;;20.90;1.00;;;;;;4952543;28;20531;-73
2021/06/10 07:07:01;;;;;;;12.90;8.27;;;21.00;1.00;;;;;;4956492;28;20205;-73
2021/06/10 07:09:27;;;;;;;9.20;7.60;;;21.10;1.00;;;;;;4956897;28;20273;-73
2021/06/10 07:11:53;;;;;;;7.57;6.77;;;21.20;1.00;;;;;;4955969;28;20283;-73
2021/06/10 07:14:19;;;;;;;11.23;7.47;;;21.30;1.00;;;;;;4955899;28;21444;-73
2021/06/10 07:16:45;;;;;;;8.13;5.77;;;21.40;1.00;;;;;;4956395;28;20200;-73
2021/06/10 07:19:11;;;;;;;9.67;6.37;;;21.50;1.00;;;;;;4951276;28;20245;-73
2021/06/10 07:21:46;;;;;;;10.20;6.50;;;21.60;1.00;;;;;;4950657;28;20336;-73
2021/06/10 07:24:13;;;;;;;5.93;5.40;;;21.70;1.00;;;;;;4952615;28;20292;-73
2021/06/10 07:26:39;;;;;;;10.80;6.80;;;21.70;1.00;;;;;;4950954;28;21341;-73
2021/06/10 07:29:06;;;;;;;11.40;7.13;;;21.80;1.00;;;;;;4951995;28;20455;-73
2021/06/10 07:31:32;;;;;;;9.20;5.97;;;21.90;1.00;;;;;;4953278;28;21098;-73
2021/06/10 07:33:58;;;;;;;6.90;5.00;;;21.90;1.00;;;;;;4955827;28;21340;-73
2021/06/10 07:36:24;;;;;;;6.70;5.43;;;22.00;1.00;;;;;;4952130;28;20473;-73
2021/06/10 07:38:51;;;;;;;9.73;5.03;;;22.00;1.00;;;;;;4954536;28;20216;-73
2021/06/10 07:41:16;;;;;;;6.57;4.87;;;22.00;1.00;;;;;;4953111;28;20649;-73
2021/06/10 07:43:42;;;;;;;8.53;5.00;;;22.10;1.00;;;;;;4959255;28;20944;-72
2021/06/10 07:46:08;;;;;;;9.70;5.40;;;22.20;1.00;;;;;;4959394;28;20189;-73
2021/06/10 07:48:33;;;;;;;8.40;4.80;;;22.30;1.00;;;;;;4957168;28;20276;-73
2021/06/10 07:51:02;;;;;;;5.00;4.50;;;22.30;1.00;;;;;;4955890;28;20822;-73
2021/06/10 07:53:28;;;;;;;6.80;4.70;;;22.30;1.00;;;;;;4958712;28;20190;-73
2021/06/10 07:55:58;;;;;;;5.97;4.50;;;22.40;1.00;;;;;;4964284;28;20505;-73
2021/06/10 07:58:24;;;;;;;5.83;4.93;;;22.40;1.00;;;;;;4961264;28;20207;-73
2021/06/10 08:00:50;;;;;;;12.43;4.87;;;22.50;1.00;;;;;;4961621;28;23151;-73
2021/06/10 08:03:15;;;;;;;11.33;5.10;;;22.50;1.00;;;;;;4961606;28;20457;-73
2021/06/10 08:05:41;;;;;;;8.73;4.70;;;22.60;1.00;;;;;;4960973;28;20193;-73
2021/06/10 08:08:07;;;;;;;6.33;4.93;;;22.60;1.00;;;;;;4962529;28;20201;-73
2021/06/10 08:10:32;;;;;;;7.40;5.60;;;22.60;1.00;;;;;;4964960;28;20201;-73
2021/06/10 08:12:58;;;;;;;7.37;5.13;;;22.70;1.00;;;;;;4965338;28;20194;-73
2021/06/10 08:15:24;;;;;;;7.97;4.97;;;22.70;1.00;;;;;;4959315;28;20243;-73
2021/06/10 08:17:49;;;;;;;8.27;5.40;;;22.90;1.00;;;;;;4963722;28;20710;-73
2021/06/10 08:20:17;;;;;;;7.13;4.93;;;22.90;1.00;;;;;;4962695;28;20728;-73
2021/06/10 08:22:43;;;;;;;9.33;5.00;;;23.00;1.00;;;;;;4958269;28;20220;-73
2021/06/10 08:25:09;;;;;;;5.73;4.80;;;23.10;1.00;;;;;;4959640;28;20481;-73
2021/06/10 08:27:37;;;;;;;9.60;6.40;;;23.10;1.00;;;;;;4955656;28;20873;-73
2021/06/10 08:30:05;;;;;;;8.33;5.43;;;23.10;1.00;;;;;;4957860;28;20464;-73
2021/06/10 08:32:31;;;;;;;6.87;5.40;;;23.30;1.00;;;;;;4955312;28;20465;-73
2021/06/10 08:34:57;;;;;;;5.90;5.30;;;23.40;1.00;;;;;;4962713;28;20489;-73
2021/06/10 08:37:22;;;;;;;9.13;4.80;;;23.40;1.00;;;;;;4958674;28;20214;-73
2021/06/10 08:39:48;;;;;;;6.30;4.97;;;23.50;1.00;;;;;;4957508;28;21355;-73
2021/06/10 08:42:15;;;;;;;8.90;5.03;;;23.50;1.00;;;;;;4965114;28;20185;-74
2021/06/10 08:44:43;;;;;;;10.47;5.00;;;23.30;1.00;;;;;;4962629;28;20298;-73
2021/06/10 08:47:10;;;;;;;6.93;5.67;;;23.30;1.00;;;;;;4964781;28;20458;-74
2021/06/10 08:49:35;;;;;;;9.43;4.80;;;23.30;1.00;;;;;;4971350;28;20480;-73
2021/06/10 08:52:06;;;;;;;4.80;4.30;;;23.30;1.00;;;;;;4973659;28;20464;-73
2021/06/10 08:54:31;;;;;;;6.37;3.80;;;23.40;1.00;;;;;;4975602;28;20600;-74
2021/06/10 08:56:57;;;;;;;5.80;4.20;;;23.60;1.00;;;;;;4962028;28;20457;-73
2021/06/10 08:59:22;;;;;;;7.33;4.50;;;23.70;1.00;;;;;;4959668;28;20276;-73
2021/06/10 09:01:48;;;;;;;6.60;4.17;;;23.90;1.00;;;;;;4955130;28;20218;-73
2021/06/10 09:04:14;;;;;;;8.83;5.00;;;24.00;1.00;;;;;;4957644;28;20311;-73
2021/06/10 09:06:48;;;;;;;5.93;3.10;;;23.90;1.00;;;;;;4956739;28;20226;-73
2021/06/10 09:09:36;;;;;;;5.33;3.73;;;24.00;1.00;;;;;;4958318;28;20453;-73
2021/06/10 09:12:08;;;;;;;6.13;4.50;;;24.20;1.00;;;;;;4954158;28;20461;-74
2021/06/10 09:14:54;;;;;;;3.60;3.30;;;24.30;1.00;;;;;;4955657;28;20441;-74
2021/06/10 09:17:26;;;;;;;5.77;3.73;;;24.40;1.00;;;;;;4949910;28;20452;-73
2021/06/10 09:19:52;;;;;;;11.53;5.50;;;24.40;1.00;;;;;;4958722;28;20968;-73
2021/06/10 09:22:19;;;;;;;5.97;4.00;;;24.40;1.00;;;;;;4957734;28;20468;-73
2021/06/10 09:24:44;;;;;;;6.20;3.53;;;24.30;1.00;;;;;;4960456;28;20194;-73
2021/06/10 09:27:13;;;;;;;4.17;3.50;;;24.20;1.00;;;;;;4960609;28;20540;-73
2021/06/10 09:29:40;;;;;;;5.07;3.67;;;24.30;1.00;;;;;;4962572;28;20242;-74
2021/06/10 09:32:10;;;;;;;4.97;3.83;;;24.50;1.00;;;;;;4960774;28;20798;-74
2021/06/10 09:34:47;;;;;;;7.63;3.70;;;24.40;1.00;;;;;;4959804;28;20440;-74
2021/06/10 09:37:14;;;;;;;4.87;3.90;;;24.50;1.00;;;;;;4958284;28;20851;-73
2021/06/10 09:39:54;;;;;;;3.90;3.40;;;24.40;1.00;;;;;;4957493;28;20444;-74
2021/06/10 09:42:28;;;;;;;4.80;3.57;;;24.50;1.00;;;;;;4958650;28;20467;-74
2021/06/10 09:44:58;;;;;;;6.17;3.93;;;24.40;1.00;;;;;;4951570;28;20456;-74
2021/06/10 09:47:34;;;;;;;6.90;3.63;;;24.30;1.00;;;;;;4951579;28;20457;-73
2021/06/10 09:50:26;;;;;;;4.20;3.30;;;24.30;1.00;;;;;;4954744;28;20468;-73
2021/06/10 09:52:55;;;;;;;4.53;3.50;;;24.50;1.00;;;;;;4952104;28;20978;-73
2021/06/10 09:55:30;;;;;;;3.60;2.40;;;24.40;1.00;;;;;;4955448;28;20453;-73
2021/06/10 09:57:56;;;;;;;4.93;3.20;;;24.40;1.00;;;;;;4953524;28;20912;-74
2021/06/10 10:00:26;;;;;;;5.23;3.07;;;24.50;1.00;;;;;;4955036;28;20484;-73
2021/06/10 10:02:52;;;;;;;3.40;2.90;;;24.40;1.00;;;;;;4963755;28;20448;-74
2021/06/10 10:05:22;;;;;;;4.17;3.00;;;24.40;1.00;;;;;;4959236;28;20490;-74
2021/06/10 10:07:48;;;;;;;3.87;3.13;;;24.50;1.00;;;;;;4951700;28;20214;-74
2021/06/10 10:10:14;;;;;;;3.50;3.20;;;24.60;1.00;;;;;;4960288;28;20456;-74
2021/06/10 10:12:43;;;;;;;4.63;3.60;;;24.50;1.00;;;;;;4955765;28;20460;-74
2021/06/10 10:15:09;;;;;;;4.40;3.60;;;24.60;1.00;;;;;;4956027;28;20487;-74
2021/06/10 10:17:36;;;;;;;3.80;3.13;;;24.60;1.00;;;;;;4957782;28;20453;-74
2021/06/10 10:20:04;;;;;;;5.00;2.50;;;24.70;1.00;;;;;;4962186;28;20492;-74
2021/06/10 10:22:31;;;;;;;6.40;2.90;;;24.90;1.00;;;;;;4956405;28;20870;-74
2021/06/10 10:24:58;;;;;;;3.70;2.70;;;24.60;1.00;;;;;;4954971;28;20465;-74
2021/06/10 10:27:24;;;;;;;3.20;2.77;;;24.00;1.00;;;;;;4961595;28;20452;-73
2021/06/10 10:29:50;;;;;;;3.93;2.60;;;23.90;1.00;;;;;;4968935;28;20441;-73
2021/06/10 10:32:28;;;;;;;5.07;2.57;;;24.20;1.00;;;;;;4965444;28;20193;-74
2021/06/10 10:35:12;;;;;;;5.80;2.80;;;24.60;1.00;;;;;;4965929;28;20551;-74
2021/06/10 10:37:38;;;;;;;5.07;2.43;;;24.60;1.00;;;;;;4963362;28;20464;-74
2021/06/10 10:40:09;;;;;;;6.07;2.67;;;24.30;1.00;;;;;;4959281;28;20486;-74
2021/06/10 10:42:36;;;;;;;3.10;2.33;;;24.20;1.00;;;;;;4964596;28;20544;-74
2021/06/10 10:45:11;;;;;;;2.67;2.43;;;24.00;1.00;;;;;;4965343;28;20484;-74
2021/06/10 10:47:47;;;;;;;4.67;2.90;;;24.20;1.00;;;;;;4964798;28;20841;-74
2021/06/10 10:50:17;;;;;;;4.43;2.90;;;24.50;1.00;;;;;;4962280;28;20520;-74
2021/06/10 10:52:57;;;;;;;4.20;3.00;;;24.80;1.00;;;;;;4964755;28;20469;-74
2021/06/10 10:55:29;;;;;;;3.17;2.20;;;24.80;1.00;;;;;;4962920;28;20561;-74
2021/06/10 10:58:22;;;;;;;6.13;2.67;;;24.70;1.00;;;;;;4968552;28;20517;-74
2021/06/10 11:00:50;;;;;;;3.57;2.20;;;24.60;1.00;;;;;;4970876;28;20483;-74
2021/06/10 11:03:44;;;;;;;5.13;3.00;;;24.60;1.00;;;;;;4967748;28;20449;-74
2021/06/10 11:06:22;;;;;;;3.23;2.93;;;24.80;1.00;;;;;;4962655;28;20449;-74
2021/06/10 11:08:58;;;;;;;4.63;2.50;;;25.20;1.00;;;;;;4967385;28;20453;-74
2021/06/10 11:11:53;;;;;;;3.10;2.80;;;25.40;1.00;;;;;;4971250;28;20456;-74
2021/06/10 11:14:50;;;;;;;3.40;2.90;;;25.70;1.00;;;;;;4965779;28;20449;-73
2021/06/10 11:17:18;;;;;;;3.80;2.80;;;25.30;1.00;;;;;;4964276;28;20465;-74
2021/06/10 11:20:10;;;;;;;2.53;2.33;;;25.30;1.00;;;;;;4966438;28;20957;-74
2021/06/10 11:23:09;;;;;;;3.70;2.60;;;25.40;1.00;;;;;;4961701;28;20469;-74
2021/06/10 11:25:44;;;;;;;7.00;2.33;;;25.60;1.00;;;;;;4963441;28;20456;-74
2021/06/10 11:28:17;;;;;;;3.10;2.53;;;25.70;1.00;;;;;;4963945;28;21325;-74
2021/06/10 11:30:44;;;;;;;3.57;2.70;;;25.60;1.00;;;;;;4960240;28;20466;-74
2021/06/10 11:33:11;;;;;;;2.57;1.83;;;25.70;1.00;;;;;;4962829;28;20445;-74
2021/06/10 11:35:46;;;;;;;3.17;2.30;;;25.90;1.00;;;;;;4962044;28;20552;-74
2021/06/10 11:38:21;;;;;;;3.00;2.40;;;26.10;1.00;;;;;;4964931;28;20483;-74
2021/06/10 11:41:02;;;;;;;8.07;2.63;;;25.90;1.00;;;;;;4966041;28;20479;-73
2021/06/10 11:43:29;;;;;;;2.93;2.00;;;25.90;1.00;;;;;;4964999;28;20540;-74
2021/06/10 11:46:08;;;;;;;6.37;2.57;;;26.00;1.00;;;;;;4966225;28;20461;-74
2021/06/10 11:48:45;;;;;;;5.13;2.70;;;26.00;1.00;;;;;;4966235;28;20474;-74
2021/06/10 11:51:31;;;;;;;3.27;2.37;;;26.00;1.00;;;;;;4964903;28;20480;-74
2021/06/10 11:54:08;;;;;;;3.13;2.47;;;25.90;1.00;;;;;;4959266;28;20506;-74
2021/06/10 11:56:33;;;;;;;8.23;2.90;;;26.00;1.00;;;;;;4960295;28;20809;-74
2021/06/10 11:59:14;;;;;;;4.30;3.50;;;25.90;1.00;;;;;;4967354;28;20445;-74
2021/06/10 12:01:39;;;;;;;3.30;2.50;;;26.00;1.00;;;;;;4965862;28;20630;-74
2021/06/10 12:04:08;;;;;;;4.27;3.03;;;26.20;1.00;;;;;;4967499;28;20460;-74
2021/06/10 12:06:34;;;;;;;4.23;2.40;;;26.40;1.00;;;;;;4965416;28;20209;-74
2021/06/10 12:09:14;;;;;;;4.77;3.50;;;26.40;1.00;;;;;;4960413;28;20596;-74
2021/06/10 12:11:49;;;;;;;3.47;2.83;;;26.20;1.00;;;;;;4966529;28;20186;-74
2021/06/10 12:14:15;;;;;;;7.23;3.60;;;26.10;1.00;;;;;;4959452;28;20447;-73
2021/06/10 12:16:41;;;;;;;6.97;3.20;;;25.90;1.00;;;;;;4960566;28;21035;-73
2021/06/10 12:19:16;;;;;;;4.43;3.00;;;25.70;1.00;;;;;;4961476;28;20186;-74
2021/06/10 12:21:42;;;;;;;4.70;3.57;;;25.60;1.00;;;;;;4960836;28;20235;-74
2021/06/10 12:24:08;;;;;;;4.23;3.30;;;25.50;1.00;;;;;;4956919;28;20452;-74
2021/06/10 12:26:35;;;;;;;3.50;3.20;;;25.50;1.00;;;;;;4951117;28;20186;-74
2021/06/10 12:29:03;;;;;;;5.37;4.37;;;25.50;1.00;;;;;;4960022;28;20448;-73
2021/06/10 12:31:32;;;;;;;6.87;4.27;;;25.60;1.00;;;;;;4958009;28;20465;-74
2021/06/10 12:33:59;;;;;;;4.77;3.63;;;25.60;1.00;;;;;;4954207;28;20829;-74
2021/06/10 12:36:25;;;;;;;7.23;4.60;;;26.00;1.00;;;;;;4958490;28;20460;-74
2021/06/10 12:38:54;;;;;;;4.53;3.70;;;26.10;1.00;;;;;;4958849;28;20921;-74
2021/06/10 12:41:23;;;;;;;8.30;3.87;;;26.20;1.00;;;;;;4960390;28;20469;-73
2021/06/10 12:43:54;;;;;;;5.53;4.40;;;26.40;1.00;;;;;;4961568;28;20457;-73
2021/06/10 12:46:22;;;;;;;4.57;3.50;;;26.60;1.00;;;;;;4965276;28;20460;-74
2021/06/10 12:48:58;;;;;;;6.70;3.43;;;26.60;1.00;;;;;;4964270;28;20476;-74
2021/06/10 12:51:28;;;;;;;5.07;3.40;;;26.60;1.00;;;;;;4959460;28;21071;-74